Time;durP1;ratioP1;P1;durP2;ratioP2;P2;SDS_P1;SDS_P2;PMS_P1;PMS_P2;Temp;Humidity;BMP_temperature;BMP_pressure;BME280_temperature;BME280_humidity;BME280_pressure;Samples;Min_cycle;Max_cycle;Signal;HPM_P1;HPM_P2
2024/01/02 00:00:28;;;;;;;;;;;;;;;18.86;34.53;95198.91;10496538;28;5097;-65
2024/01/02 00:05:28;;;;;;;;;;;;;;;18.87;34.56;95204.97;10501750;28;1892;-64
2024/01/02 00:10:28;;;;;;;;;;;;;;;18.85;34.33;95194.72;10491076;28;2016;-63
2024/01/02 00:15:28;;;;;;;;;;;;;;;18.87;34.24;95186.56;10503764;28;2012;-64
2024/01/02 00:20:31;;;;;;;;;;;;;;;18.85;34.57;95180.81;10495241;28;1974;-64
2024/01/02 00:25:32;;;;;;;;;;;;;;;18.83;34.69;95167.97;10509053;28;2056;-60
2024/01/02 00:30:34;;;;;;;;;;;;;;;18.81;34.78;95151.72;10509980;28;2013;-65
2024/01/02 00:35:34;;;;;;;;;;;;;;;18.83;34.43;95160.09;10517236;28;2011;-65
2024/01/02 00:40:34;;;;;;;;;;;;;;;18.84;34.47;95150.34;10513862;28;2354;-64
2024/01/02 00:45:35;;;;;;;;;;;;;;;18.82;34.69;95136.72;10519718;28;1932;-64
2024/01/02 00:50:35;;;;;;;;;;;;;;;18.84;34.57;95132.75;10523404;28;2084;-64
2024/01/02 00:55:35;;;;;;;;;;;;;;;18.84;34.32;95127.50;10513879;28;2193;-64
2024/01/02 01:00:35;;;;;;;;;;;;;;;18.83;34.29;95122.53;10515704;28;4593;-64
2024/01/02 01:05:36;;;;;;;;;;;;;;;18.84;34.68;95117.00;10511424;28;1903;-65
2024/01/02 01:10:36;;;;;;;;;;;;;;;18.81;34.48;95099.19;10509617;28;2126;-64
2024/01/02 01:15:38;;;;;;;;;;;;;;;18.79;34.19;95088.19;10496102;28;2056;-64
2024/01/02 01:20:38;;;;;;;;;;;;;;;18.78;34.15;95083.19;10510623;28;2012;-64
2024/01/02 01:25:38;;;;;;;;;;;;;;;18.77;33.91;95082.44;10511255;28;1873;-65
2024/01/02 01:30:39;;;;;;;;;;;;;;;18.75;34.21;95078.50;10515724;28;2046;-65
2024/01/02 01:35:39;;;;;;;;;;;;;;;18.75;33.92;95075.88;10508538;28;2153;-65
2024/01/02 01:40:39;;;;;;;;;;;;;;;18.72;34.08;95084.31;10509696;28;2176;-65
2024/01/02 01:45:40;;;;;;;;;;;;;;;18.69;34.00;95083.03;10521351;28;2138;-65
2024/01/02 01:50:42;;;;;;;;;;;;;;;18.70;34.33;95084.59;10512726;28;1918;-64
2024/01/02 01:55:42;;;;;;;;;;;;;;;18.66;34.51;95086.19;10515201;28;1954;-65
2024/01/02 02:00:43;;;;;;;;;;;;;;;18.63;34.71;95082.28;10512027;28;5262;-64
2024/01/02 02:05:44;;;;;;;;;;;;;;;18.64;34.04;95081.22;10521879;28;1942;-64
2024/01/02 02:10:44;;;;;;;;;;;;;;;18.59;34.83;95073.41;10533283;28;1947;-65
2024/01/02 02:15:44;;;;;;;;;;;;;;;18.59;34.81;95064.72;10511830;28;2035;-64
2024/01/02 02:20:45;;;;;;;;;;;;;;;18.57;34.32;95051.09;10509133;28;2088;-65
2024/01/02 02:25:45;;;;;;;;;;;;;;;18.57;34.30;95044.03;10515168;28;2236;-64
2024/01/02 02:30:45;;;;;;;;;;;;;;;18.54;34.69;95039.34;10509984;28;2177;-65
2024/01/02 02:35:45;;;;;;;;;;;;;;;18.55;34.70;95040.09;10513054;28;2004;-64
2024/01/02 02:40:46;;;;;;;;;;;;;;;18.50;34.65;95037.53;10510683;28;2131;-64
2024/01/02 02:45:46;;;;;;;;;;;;;;;18.49;34.79;95026.25;10515939;28;2002;-65
2024/01/02 02:50:46;;;;;;;;;;;;;;;18.49;35.04;95026.25;10509932;28;1930;-64
2024/01/02 02:55:46;;;;;;;;;;;;;;;18.47;35.09;95023.13;10515665;28;4890;-64
2024/01/02 03:00:47;;;;;;;;;;;;;;;18.48;34.90;95008.16;10517629;28;2004;-65
2024/01/02 03:05:47;;;;;;;;;;;;;;;18.47;34.81;95001.34;10516559;28;1917;-65
2024/01/02 03:10:50;;;;;;;;;;;;;;;18.47;34.86;95001.34;10491357;28;2010;-64
2024/01/02 03:15:50;;;;;;;;;;;;;;;18.46;35.11;95002.41;10512463;28;1889;-64
2024/01/02 03:20:50;;;;;;;;;;;;;;;18.45;34.80;94987.72;10493009;28;1969;-64
2024/01/02 03:25:50;;;;;;;;;;;;;;;18.45;34.82;94987.72;10508548;28;2089;-64
2024/01/02 03:30:51;;;;;;;;;;;;;;;18.43;34.97;94984.56;10488516;28;2120;-64
2024/01/02 03:35:51;;;;;;;;;;;;;;;18.45;35.02;94971.97;10505643;28;1976;-64
2024/01/02 03:40:51;;;;;;;;;;;;;;;18.44;34.67;94955.44;10511698;28;1948;-65
2024/01/02 03:45:52;;;;;;;;;;;;;;;18.42;34.61;94947.03;10504206;28;2112;-66
2024/01/02 03:50:52;;;;;;;;;;;;;;;18.41;34.98;94948.09;10522405;28;1993;-63
2024/01/02 03:56:02;;;;;;;;;;;;;;;18.41;34.99;94936.81;10491575;28;5074;-65
2024/01/02 04:01:02;;;;;;;;;;;;;;;18.41;34.82;94926.31;10502889;28;2193;-64
2024/01/02 04:06:02;;;;;;;;;;;;;;;18.40;35.16;94932.66;10507636;28;1958;-66
2024/01/02 04:11:02;;;;;;;;;;;;;;;18.38;35.17;94919.03;10505412;28;1921;-65
2024/01/02 04:16:04;;;;;;;;;;;;;;;18.37;35.08;94907.75;10510255;28;2044;-63
2024/01/02 04:21:04;;;;;;;;;;;;;;;18.37;34.65;94901.72;10513766;28;1970;-63
2024/01/02 04:26:05;;;;;;;;;;;;;;;18.41;34.27;94907.97;10503444;28;1984;-63
2024/01/02 04:31:06;;;;;;;;;;;;;;;18.37;34.95;94910.38;10516341;28;2079;-63
2024/01/02 04:36:07;;;;;;;;;;;;;;;18.38;34.18;94913.78;10502814;28;2110;-64
2024/01/02 04:41:07;;;;;;;;;;;;;;;18.39;34.48;94915.31;10502894;28;1935;-64
2024/01/02 04:46:07;;;;;;;;;;;;;;;18.35;34.63;94896.75;10505562;28;1988;-65
2024/01/02 04:51:08;;;;;;;;;;;;;;;18.35;34.75;94883.63;10505542;28;2260;-65
2024/01/02 04:56:08;;;;;;;;;;;;;;;18.36;34.36;94872.06;10518769;28;4996;-65
2024/01/02 05:01:08;;;;;;;;;;;;;;;18.37;34.60;94864.97;10505885;28;2015;-65
2024/01/02 05:06:09;;;;;;;;;;;;;;;18.35;34.53;94853.97;10517493;28;1917;-65
2024/01/02 05:11:09;;;;;;;;;;;;;;;18.36;34.56;94852.94;10499274;28;1996;-65
2024/01/02 05:16:09;;;;;;;;;;;;;;;18.38;34.46;94856.81;10510097;28;2088;-65
2024/01/02 05:21:10;;;;;;;;;;;;;;;18.42;34.57;94836.06;10524515;28;2126;-65
2024/01/02 05:26:10;;;;;;;;;;;;;;;18.45;34.38;94827.66;10510678;28;1994;-65
2024/01/02 05:31:11;;;;;;;;;;;;;;;18.47;34.25;94812.41;10515164;28;1997;-65
2024/01/02 05:36:13;;;;;;;;;;;;;;;18.49;34.66;94805.03;10476508;28;2146;-65
2024/01/02 05:41:13;;;;;;;;;;;;;;;18.52;34.57;94770.34;10524613;28;2070;-65
2024/01/02 05:46:13;;;;;;;;;;;;;;;18.56;34.32;94750.34;10506121;28;2181;-64
2024/01/02 05:51:14;;;;;;;;;;;;;;;18.57;34.42;94752.69;10505801;28;1985;-65
2024/01/02 05:56:16;;;;;;;;;;;;;;;18.60;34.11;94738.22;10514964;28;4957;-65
2024/01/02 06:01:16;;;;;;;;;;;;;;;18.60;34.46;94743.47;10512875;28;2304;-64
2024/01/02 06:06:16;;;;;;;;;;;;;;;18.60;34.26;94735.59;10495498;28;2367;-65
2024/01/02 06:11:16;;;;;;;;;;;;;;;18.64;34.24;94734.75;10516978;28;2032;-65
2024/01/02 06:16:17;;;;;;;;;;;;;;;18.64;34.10;94741.84;10504560;28;1938;-64
2024/01/02 06:21:17;;;;;;;;;;;;;;;18.65;34.13;94715.28;10507042;28;2053;-65
2024/01/02 06:26:17;;;;;;;;;;;;;;;18.67;34.09;94707.13;10512264;28;2006;-64
2024/01/02 06:31:24;;;;;;;;;;;;;;;18.69;33.97;94718.16;10508407;28;1991;-66
2024/01/02 06:36:24;;;;;;;;;;;;;;;18.72;33.87;94701.03;10510341;28;1962;-65
2024/01/02 06:41:24;;;;;;;;;;;;;;;18.71;33.99;94700.25;10512908;28;2578;-66
2024/01/02 06:46:25;;;;;;;;;;;;;;;18.73;33.90;94682.38;10514145;28;1993;-65
2024/01/02 06:51:28;;;;;;;;;;;;;;;18.76;34.01;94662.63;10514815;28;2087;-65
2024/01/02 06:56:28;;;;;;;;;;;;;;;18.79;33.53;94652.34;10517082;28;4894;-65
2024/01/02 07:01:28;;;;;;;;;;;;;;;18.80;33.47;94651.28;10515954;28;1932;-65
2024/01/02 07:06:29;;;;;;;;;;;;;;;18.83;33.28;94660.44;10515800;28;2300;-65
2024/01/02 07:11:30;;;;;;;;;;;;;;;18.81;33.57;94665.97;10511227;28;2043;-64
2024/01/02 07:16:32;;;;;;;;;;;;;;;18.84;33.45;94654.88;10514059;28;2196;-65
2024/01/02 07:21:32;;;;;;;;;;;;;;;18.84;33.39;94644.38;10509464;28;2012;-64
2024/01/02 07:26:32;;;;;;;;;;;;;;;18.86;33.17;94642.25;10500869;28;1933;-65
2024/01/02 07:31:34;;;;;;;;;;;;;;;18.87;33.75;94638.56;10510455;28;1988;-65
2024/01/02 07:36:34;;;;;;;;;;;;;;;18.90;34.40;94621.47;10511282;28;1951;-65
2024/01/02 07:41:34;;;;;;;;;;;;;;;18.94;34.36;94602.19;10504289;28;2116;-65
2024/01/02 07:46:35;;;;;;;;;;;;;;;18.94;34.30;94599.56;10508438;28;1946;-64
2024/01/02 07:51:35;;;;;;;;;;;;;;;18.97;34.14;94579.81;10508930;28;2427;-65
2024/01/02 07:56:35;;;;;;;;;;;;;;;19.00;34.28;94613.41;10514857;28;4910;-65
2024/01/02 08:01:35;;;;;;;;;;;;;;;19.00;34.13;94619.41;10510553;28;2048;-64
2024/01/02 08:06:36;;;;;;;;;;;;;;;19.02;34.34;94613.88;10509759;28;2512;-65
2024/01/02 08:11:37;;;;;;;;;;;;;;;19.03;33.95;94599.66;10493759;28;2110;-63
2024/01/02 08:16:37;;;;;;;;;;;;;;;19.05;33.80;94603.56;10509652;28;2042;-63
2024/01/02 08:21:37;;;;;;;;;;;;;;;19.06;34.03;94599.84;10509264;28;1965;-64
2024/01/02 08:26:38;;;;;;;;;;;;;;;19.04;34.55;94588.88;10502974;28;2064;-63
2024/01/02 08:31:38;;;;;;;;;;;;;;;19.07;34.50;94582.25;10500760;28;2064;-63
2024/01/02 08:36:38;;;;;;;;;;;;;;;19.09;34.30;94572.25;10508520;28;1881;-64
2024/01/02 08:41:38;;;;;;;;;;;;;;;19.13;34.01;94570.59;10498408;28;2142;-66
2024/01/02 08:46:39;;;;;;;;;;;;;;;19.17;33.77;94564.47;10515363;28;2060;-70
2024/01/02 08:51:39;;;;;;;;;;;;;;;19.18;34.03;94571.28;10525378;28;2389;-66
2024/01/02 08:56:39;;;;;;;;;;;;;;;19.26;33.85;94570.59;10512421;28;4997;-66
2024/01/02 09:01:40;;;;;;;;;;;;;;;19.26;33.40;94556.66;10514956;28;2067;-73
2024/01/02 09:06:40;;;;;;;;;;;;;;;19.39;33.77;94567.19;10516423;28;1996;-62
2024/01/02 09:11:40;;;;;;;;;;;;;;;19.54;32.73;94570.59;10520241;28;1910;-73
2024/01/02 09:16:42;;;;;;;;;;;;;;;19.48;33.08;94569.91;10496118;28;2137;-74
2024/01/02 09:21:43;;;;;;;;;;;;;;;19.50;33.04;94573.03;10515886;28;1948;-74
2024/01/02 09:26:44;;;;;;;;;;;;;;;19.50;33.18;94562.50;10513881;28;1940;-63
2024/01/02 09:31:45;;;;;;;;;;;;;;;19.22;29.93;94571.47;10512221;28;1977;-63
2024/01/02 09:36:45;;;;;;;;;;;;;;;19.21;31.49;94570.69;10512807;28;2014;-72
2024/01/02 09:41:50;;;;;;;;;;;;;;;19.39;32.57;94555.91;10524182;28;1886;-66
2024/01/02 09:47:13;;;;;;;;;;;;;;;19.63;32.04;94550.41;10497598;28;2059;-68
2024/01/02 09:52:13;;;;;;;;;;;;;;;19.82;32.59;94553.69;10522045;28;1985;-75
2024/01/02 09:57:16;;;;;;;;;;;;;;;19.76;32.67;94534.63;10513863;28;1963;-78
2024/01/02 10:02:34;;;;;;;;;;;;;;;19.68;32.74;94526.66;10522946;28;2153;-77
2024/01/02 10:07:55;;;;;;;;;;;;;;;19.70;32.31;94525.25;10512117;28;2035;-74
2024/01/02 10:13:07;;;;;;;;;;;;;;;19.68;32.30;94514.25;10474621;28;1986;-73
2024/01/02 10:18:07;;;;;;;;;;;;;;;19.72;32.12;94509.22;10509672;28;1910;-74
2024/01/02 10:23:08;;;;;;;;;;;;;;;19.71;32.76;94508.44;10522569;28;2011;-73
2024/01/02 10:28:13;;;;;;;;;;;;;;;19.74;32.16;94507.81;10512959;28;1906;-73
2024/01/02 10:33:16;;;;;;;;;;;;;;;19.77;32.05;94499.34;10507619;28;2198;-73
2024/01/02 10:38:22;;;;;;;;;;;;;;;19.81;32.01;94495.03;10511478;28;1870;-72
2024/01/02 10:43:29;;;;;;;;;;;;;;;19.84;32.05;94496.31;10511661;28;2800;-72
2024/01/02 10:48:44;;;;;;;;;;;;;;;19.98;31.93;94478.63;10506003;28;2278;-68
2024/01/02 10:53:51;;;;;;;;;;;;;;;20.11;31.74;94488.31;10498131;28;1978;-68
2024/01/02 10:59:03;;;;;;;;;;;;;;;20.17;32.57;94489.72;10494751;28;4894;-71
2024/01/02 11:04:11;;;;;;;;;;;;;;;20.29;32.09;94468.94;10491427;28;2061;-70
2024/01/02 11:09:15;;;;;;;;;;;;;;;20.40;31.61;94469.44;10478547;28;1905;-64
2024/01/02 11:14:15;;;;;;;;;;;;;;;20.24;32.27;94472.47;10510050;28;1925;-66
2024/01/02 11:19:15;;;;;;;;;;;;;;;20.32;32.63;94470.19;10493375;28;1983;-68
2024/01/02 11:24:17;;;;;;;;;;;;;;;20.27;32.17;94460.56;10510182;28;1872;-65
2024/01/02 11:29:23;;;;;;;;;;;;;;;20.26;32.05;94453.72;10489377;28;1977;-67
2024/01/02 11:34:33;;;;;;;;;;;;;;;20.29;31.52;94453.13;10513169;28;2051;-66
2024/01/02 11:39:36;;;;;;;;;;;;;;;20.27;31.86;94434.25;10516312;28;2127;-67
2024/01/02 11:44:40;;;;;;;;;;;;;;;20.30;31.42;94423.09;10507600;28;1943;-68
2024/01/02 11:49:42;;;;;;;;;;;;;;;20.32;31.30;94428.84;10506906;28;2050;-67
2024/01/02 11:54:46;;;;;;;;;;;;;;;20.34;31.34;94400.34;10487491;28;2035;-67
2024/01/02 11:59:52;;;;;;;;;;;;;;;20.35;31.82;94394.03;10506709;28;5088;-67
2024/01/02 12:05:04;;;;;;;;;;;;;;;20.39;31.60;94386.28;10511609;28;2064;-68
2024/01/02 12:10:05;;;;;;;;;;;;;;;20.40;31.23;94372.06;10522305;28;2257;-67
2024/01/02 12:15:12;;;;;;;;;;;;;;;20.42;31.69;94367.28;10487019;28;2118;-67
2024/01/02 12:20:12;;;;;;;;;;;;;;;20.46;30.89;94376.13;10519969;28;1968;-67
2024/01/02 12:25:13;;;;;;;;;;;;;;;20.47;31.19;94364.50;10523903;28;1936;-66
2024/01/02 12:30:24;;;;;;;;;;;;;;;20.47;31.55;94341.56;10513551;28;1984;-67
2024/01/02 12:35:28;;;;;;;;;;;;;;;20.46;31.24;94341.91;10514819;28;2129;-67
2024/01/02 12:40:29;;;;;;;;;;;;;;;20.49;32.01;94346.53;10498892;28;2034;-68
2024/01/02 12:45:32;;;;;;;;;;;;;;;20.52;32.31;94333.56;10499118;28;1891;-65
2024/01/02 12:50:35;;;;;;;;;;;;;;;20.55;31.70;94337.41;10515251;28;1933;-64
2024/01/02 12:55:43;;;;;;;;;;;;;;;20.52;32.95;94338.03;10500880;28;2028;-65
2024/01/02 13:00:46;;;;;;;;;;;;;;;20.60;32.62;94329.38;10514738;28;5430;-63
2024/01/02 13:05:46;;;;;;;;;;;;;;;20.59;32.92;94336.50;10499448;28;2448;-64
2024/01/02 13:10:47;;;;;;;;;;;;;;;20.63;32.45;94329.53;10495141;28;2126;-65
2024/01/02 13:15:51;;;;;;;;;;;;;;;20.59;32.87;94333.06;10504151;28;2084;-64
2024/01/02 13:20:52;;;;;;;;;;;;;;;20.58;33.18;94328.91;10513276;28;2169;-64
2024/01/02 13:25:52;;;;;;;;;;;;;;;20.57;33.53;94325.50;10495462;28;1882;-67
2024/01/02 13:30:53;;;;;;;;;;;;;;;20.52;33.59;94315.13;10510688;28;3200;-67
2024/01/02 13:36:01;;;;;;;;;;;;;;;20.58;34.21;94313.91;10511889;28;2697;-65
2024/01/02 13:41:03;;;;;;;;;;;;;;;20.58;33.86;94324.44;10510555;28;2515;-67
2024/01/02 13:46:18;;;;;;;;;;;;;;;20.57;33.83;94312.34;10498073;28;1979;-66
2024/01/02 13:51:22;;;;;;;;;;;;;;;20.59;33.46;94310.16;10520453;28;2511;-65
2024/01/02 13:56:22;;;;;;;;;;;;;;;20.61;34.14;94323.78;10491202;28;4819;-66
2024/01/02 14:01:30;;;;;;;;;;;;;;;20.59;33.85;94304.91;10508566;28;2449;-65
2024/01/02 14:06:31;;;;;;;;;;;;;;;20.60;33.75;94289.88;10497289;28;5007;-66
2024/01/02 14:11:31;;;;;;;;;;;;;;;20.57;33.38;94280.75;10510913;28;2118;-65
2024/01/02 14:16:31;;;;;;;;;;;;;;;20.58;33.67;94297.31;10512409;28;1902;-66
2024/01/02 14:21:32;;;;;;;;;;;;;;;20.75;33.18;94278.91;10508391;28;2259;-67
2024/01/02 14:26:42;;;;;;;;;;;;;;;20.85;32.24;94274.13;10515271;28;2052;-68
2024/01/02 14:31:55;;;;;;;;;;;;;;;20.87;32.00;94258.78;10495708;28;2033;-68
2024/01/02 14:37:01;;;;;;;;;;;;;;;20.92;31.88;94242.03;10507827;28;1981;-68
2024/01/02 14:42:06;;;;;;;;;;;;;;;20.92;31.79;94258.59;10505760;28;1937;-69
2024/01/02 14:47:11;;;;;;;;;;;;;;;20.99;32.16;94261.56;10495678;28;2367;-68
2024/01/02 14:52:11;;;;;;;;;;;;;;;21.04;32.21;94229.78;10491259;28;1949;-70
2024/01/02 14:57:14;;;;;;;;;;;;;;;21.08;32.30;94242.34;10508481;28;4853;-70
2024/01/02 15:02:15;;;;;;;;;;;;;;;21.04;32.78;94244.84;10505665;28;2125;-70
2024/01/02 15:07:16;;;;;;;;;;;;;;;21.10;32.49;94251.50;10508800;28;2074;-70
2024/01/02 15:12:20;;;;;;;;;;;;;;;21.08;32.96;94224.69;10492695;28;1957;-70
2024/01/02 15:17:36;;;;;;;;;;;;;;;21.06;32.63;94232.88;10509913;28;2002;-70
2024/01/02 15:22:47;;;;;;;;;;;;;;;21.12;32.76;94230.88;10491048;28;1978;-70
2024/01/02 15:28:07;;;;;;;;;;;;;;;21.15;32.61;94240.78;10491749;28;1978;-70
2024/01/02 15:33:09;;;;;;;;;;;;;;;21.11;33.08;94239.09;10490420;28;2013;-71
2024/01/02 15:38:19;;;;;;;;;;;;;;;21.03;33.28;94238.03;10489739;28;1868;-66
2024/01/02 15:43:23;;;;;;;;;;;;;;;21.10;32.97;94232.28;10494527;28;1899;-70
2024/01/02 15:48:23;;;;;;;;;;;;;;;21.08;33.26;94239.72;10488492;28;1936;-71
2024/01/02 15:53:36;;;;;;;;;;;;;;;21.12;33.34;94245.91;10510795;28;2044;-70
2024/01/02 15:58:42;;;;;;;;;;;;;;;21.19;32.86;94246.19;10491243;28;4850;-71
2024/01/02 16:03:46;;;;;;;;;;;;;;;21.22;32.72;94240.31;10515041;28;1997;-70
2024/01/02 16:08:47;;;;;;;;;;;;;;;21.19;33.15;94235.66;10509100;28;2008;-70
2024/01/02 16:14:04;;;;;;;;;;;;;;;21.19;33.24;94254.09;10509571;28;2275;-71
2024/01/02 16:19:19;;;;;;;;;;;;;;;21.22;32.85;94272.72;10530360;28;2099;-76
2024/01/02 16:24:28;;;;;;;;;;;;;;;21.19;32.83;94262.00;10513784;28;1884;-75
2024/01/02 16:29:36;;;;;;;;;;;;;;;21.21;32.92;94271.16;10522652;28;1989;-75
2024/01/02 16:34:55;;;;;;;;;;;;;;;21.13;33.29;94265.88;10494094;28;1868;-74
2024/01/02 16:39:56;;;;;;;;;;;;;;;21.17;33.01;94266.81;10505550;28;2052;-72
2024/01/02 16:44:56;;;;;;;;;;;;;;;21.23;32.73;94255.81;10506313;28;1932;-71
2024/01/02 16:49:56;;;;;;;;;;;;;;;21.24;32.98;94246.03;10516796;28;2040;-71
2024/01/02 16:54:57;;;;;;;;;;;;;;;21.24;32.84;94244.19;10508670;28;2225;-74
2024/01/02 16:59:59;;;;;;;;;;;;;;;21.10;33.23;94224.38;10499627;28;4851;-75
2024/01/02 17:05:01;;;;;;;;;;;;;;;21.13;34.04;94223.72;10524676;28;1985;-72
2024/01/02 17:10:05;;;;;;;;;;;;;;;21.28;33.00;94204.81;10521990;28;2040;-70
2024/01/02 17:15:08;;;;;;;;;;;;;;;21.23;33.73;94210.22;10525108;28;2230;-71
2024/01/02 17:20:08;;;;;;;;;;;;;;;21.23;33.90;94215.50;10523620;28;1906;-69
2024/01/02 17:25:09;;;;;;;;;;;;;;;21.20;33.70;94200.31;10507911;28;2148;-69
2024/01/02 17:30:10;;;;;;;;;;;;;;;21.21;34.00;94189.47;10513242;28;2084;-72
2024/01/02 17:35:12;;;;;;;;;;;;;;;21.20;33.73;94173.97;10512404;28;3148;-73
2024/01/02 17:40:12;;;;;;;;;;;;;;;21.16;34.12;94179.13;10518167;28;2127;-71
2024/01/02 17:45:28;;;;;;;;;;;;;;;21.23;33.40;94168.84;10517010;28;1943;-66
2024/01/02 17:50:28;;;;;;;;;;;;;;;21.23;33.35;94160.94;10516687;28;1940;-62
2024/01/02 17:55:29;;;;;;;;;;;;;;;21.25;33.68;94152.72;10502867;28;2064;-63
2024/01/02 18:00:29;;;;;;;;;;;;;;;21.35;33.71;94141.84;10494136;28;2217;-63
2024/01/02 18:05:36;;;;;;;;;;;;;;;21.24;33.75;94144.06;10515134;28;2044;-64
2024/01/02 18:10:49;;;;;;;;;;;;;;;21.26;33.30;94143.72;10517076;28;2020;-66
2024/01/02 18:15:56;;;;;;;;;;;;;;;21.30;33.55;94123.56;10509825;28;1998;-70
2024/01/02 18:21:17;;;;;;;;;;;;;;;21.36;32.73;94117.03;10511463;28;2005;-66
2024/01/02 18:26:23;;;;;;;;;;;;;;;21.44;33.36;94103.03;10515206;28;1904;-67
2024/01/02 18:31:23;;;;;;;;;;;;;;;21.46;32.67;94104.25;10494361;28;3423;-69
2024/01/02 18:36:34;;;;;;;;;;;;;;;21.44;32.48;94098.53;10517380;28;2158;-66
2024/01/02 18:41:41;;;;;;;;;;;;;;;21.41;33.57;94090.50;10510016;28;1882;-66
2024/01/02 18:46:54;;;;;;;;;;;;;;;21.48;32.91;94074.94;10513494;28;1870;-74
2024/01/02 18:52:18;;;;;;;;;;;;;;;21.36;33.54;94065.09;10501280;28;1973;-63
2024/01/02 18:57:18;;;;;;;;;;;;;;;21.37;33.60;94061.34;10499987;28;4879;-66
2024/01/02 19:02:19;;;;;;;;;;;;;;;21.37;33.81;94065.88;10520870;28;2334;-66
2024/01/02 19:07:19;;;;;;;;;;;;;;;21.44;33.64;94045.03;10501933;28;1873;-67
2024/01/02 19:12:19;;;;;;;;;;;;;;;21.54;32.59;94050.72;10495107;28;1906;-64
2024/01/02 19:17:20;;;;;;;;;;;;;;;21.48;33.19;94038.03;10515103;28;2055;-66
2024/01/02 19:22:20;;;;;;;;;;;;;;;21.46;33.06;94037.56;10494534;28;2140;-70
2024/01/02 19:27:22;;;;;;;;;;;;;;;21.61;32.55;94034.38;10509337;28;2112;-69
2024/01/02 19:32:23;;;;;;;;;;;;;;;21.60;32.50;94038.09;10481668;28;2022;-69
2024/01/02 19:37:23;;;;;;;;;;;;;;;21.66;32.52;94039.44;10514907;28;1981;-68
2024/01/02 19:42:23;;;;;;;;;;;;;;;21.55;33.14;94038.31;10492138;28;1961;-68
2024/01/02 19:47:23;;;;;;;;;;;;;;;21.51;32.94;94024.22;10507958;28;2560;-66
2024/01/02 19:52:24;;;;;;;;;;;;;;;21.52;33.18;94020.47;10512646;28;1909;-67
2024/01/02 19:57:24;;;;;;;;;;;;;;;21.55;33.42;94009.31;10507392;28;4930;-67
2024/01/02 20:02:26;;;;;;;;;;;;;;;21.55;33.51;94002.19;10504814;28;2052;-65
2024/01/02 20:07:29;;;;;;;;;;;;;;;21.53;34.42;93993.03;10509733;28;1932;-67
2024/01/02 20:12:39;;;;;;;;;;;;;;;21.49;33.80;93992.91;10510351;28;1901;-68
2024/01/02 20:17:39;;;;;;;;;;;;;;;21.60;33.54;93980.88;10512039;28;1993;-70
2024/01/02 20:22:40;;;;;;;;;;;;;;;21.57;33.57;93978.13;10505599;28;2087;-70
2024/01/02 20:27:51;;;;;;;;;;;;;;;21.57;33.93;93971.00;10498203;28;1858;-70
2024/01/02 20:32:54;;;;;;;;;;;;;;;21.55;34.75;93956.56;10506594;28;1973;-74
2024/01/02 20:37:56;;;;;;;;;;;;;;;21.49;34.07;93944.69;10495079;28;2079;-72
2024/01/02 20:42:56;;;;;;;;;;;;;;;21.42;34.02;93947.06;10518051;28;1943;-72
2024/01/02 20:47:57;;;;;;;;;;;;;;;21.38;34.29;93925.84;10516093;28;1960;-73
2024/01/02 20:53:01;;;;;;;;;;;;;;;21.24;34.57;93945.63;10527993;28;2025;-73
2024/01/02 20:58:01;;;;;;;;;;;;;;;21.25;34.00;93934.00;10518215;28;4708;-72
2024/01/02 21:03:04;;;;;;;;;;;;;;;21.18;34.28;93936.38;10500483;28;1907;-72
2024/01/02 21:08:12;;;;;;;;;;;;;;;21.05;34.94;93928.41;10516281;28;2270;-72
2024/01/02 21:13:21;;;;;;;;;;;;;;;20.99;34.31;93939.41;10494174;28;1993;-73
2024/01/02 21:18:36;;;;;;;;;;;;;;;20.95;34.75;93926.09;10498951;28;2170;-72
2024/01/02 21:23:38;;;;;;;;;;;;;;;20.86;35.16;93924.59;10517231;28;2503;-72
2024/01/02 21:28:38;;;;;;;;;;;;;;;20.76;35.47;93931.00;10518383;28;2094;-72
2024/01/02 21:33:39;;;;;;;;;;;;;;;20.75;35.07;93939.97;10503682;28;1969;-71
2024/01/02 21:38:39;;;;;;;;;;;;;;;20.71;34.76;93944.34;10518119;28;2060;-72
2024/01/02 21:43:39;;;;;;;;;;;;;;;20.61;35.26;93926.28;10515011;28;2021;-71
2024/01/02 21:48:43;;;;;;;;;;;;;;;20.59;34.88;93927.66;10511934;28;1982;-72
2024/01/02 21:53:43;;;;;;;;;;;;;;;20.54;35.02;93941.03;10513744;28;2033;-72
2024/01/02 21:58:45;;;;;;;;;;;;;;;20.49;35.20;93941.19;10513211;28;4886;-72
2024/01/02 22:03:50;;;;;;;;;;;;;;;20.47;34.76;93936.25;10518528;28;2143;-72
2024/01/02 22:08:52;;;;;;;;;;;;;;;20.42;34.78;93951.44;10510731;28;2370;-72
2024/01/02 22:13:52;;;;;;;;;;;;;;;20.40;35.10;93957.03;10519049;28;2063;-72
2024/01/02 22:19:11;;;;;;;;;;;;;;;20.37;34.90;93967.41;10519376;28;1849;-72
2024/01/02 22:24:43;;;;;;;;;;;;;;;20.32;35.40;93962.31;10512215;28;1881;-72
2024/01/02 22:29:44;;;;;;;;;;;;;;;20.31;35.03;93976.53;10468081;28;2036;-72
2024/01/02 22:34:44;;;;;;;;;;;;;;;20.27;35.11;93985.09;10501548;28;1869;-73
2024/01/02 22:39:55;;;;;;;;;;;;;;;20.25;35.00;93979.38;10514828;28;1944;-72
2024/01/02 22:44:55;;;;;;;;;;;;;;;20.22;34.82;93987.09;10507312;28;2033;-72
2024/01/02 22:49:55;;;;;;;;;;;;;;;20.18;34.49;93991.41;10509388;28;1995;-72
2024/01/02 22:54:56;;;;;;;;;;;;;;;20.16;34.81;93993.56;10511813;28;1985;-71
2024/01/02 22:59:56;;;;;;;;;;;;;;;20.12;34.50;93996.06;10515565;28;1955;-71
2024/01/02 23:04:56;;;;;;;;;;;;;;;20.10;34.54;94002.72;10517249;28;2311;-71
2024/01/02 23:09:59;;;;;;;;;;;;;;;20.06;34.90;94020.97;10495960;28;2283;-71
2024/01/02 23:14:59;;;;;;;;;;;;;;;20.03;34.43;94013.69;10516675;28;2176;-71
2024/01/02 23:19:59;;;;;;;;;;;;;;;20.01;34.71;94009.84;10512564;28;2095;-70
2024/01/02 23:25:06;;;;;;;;;;;;;;;19.99;34.70;94012.78;10510546;28;2424;-70
2024/01/02 23:30:09;;;;;;;;;;;;;;;20.00;34.23;94003.03;10496231;28;2050;-71
2024/01/02 23:35:13;;;;;;;;;;;;;;;19.93;34.56;94011.38;10509558;28;2126;-71
2024/01/02 23:40:25;;;;;;;;;;;;;;;19.93;34.62;94023.75;10517533;28;1985;-71
2024/01/02 23:45:27;;;;;;;;;;;;;;;19.91;34.19;94042.47;10510505;28;1915;-72
2024/01/02 23:50:27;;;;;;;;;;;;;;;19.88;34.68;94039.72;10506679;28;2104;-71
2024/01/02 23:55:27;;;;;;;;;;;;;;;19.87;34.38;94056.56;10514551;28;2139;-70
